Time;durP1;ratioP1;P1;durP2;ratioP2;P2;SDS_P1;SDS_P2;PMS_P1;PMS_P2;Temp;Humidity;BMP_temperature;BMP_pressure;BME280_temperature;BME280_humidity;BME280_pressure;Samples;Min_cycle;Max_cycle;Signal;HPM_P1;HPM_P2
2021/11/03 00:00:43;;;;;;;28.75;15.98;;;6.80;99.90;;;;;;5077881;28;20208;-73
2021/11/03 00:03:10;;;;;;;20.33;16.40;;;6.80;99.90;;;;;;5077973;28;20606;-70
2021/11/03 00:05:51;;;;;;;20.63;15.75;;;6.70;99.90;;;;;;5077701;28;20535;-72
2021/11/03 00:08:22;;;;;;;21.65;15.60;;;6.70;99.90;;;;;;5077350;28;20272;-70
2021/11/03 00:10:54;;;;;;;23.70;16.13;;;6.70;99.90;;;;;;5077678;28;20231;-72
2021/11/03 00:13:25;;;;;;;23.23;16.98;;;6.70;99.90;;;;;;5095990;28;20248;-72
2021/11/03 00:15:53;;;;;;;21.92;16.40;;;6.60;99.90;;;;;;5077597;28;20265;-71
2021/11/03 00:18:19;;;;;;;24.58;17.00;;;6.60;99.90;;;;;;5077557;28;20176;-73
2021/11/03 00:20:46;;;;;;;24.30;17.27;;;6.60;99.90;;;;;;5077381;28;20265;-69
2021/11/03 00:23:12;;;;;;;25.00;16.58;;;6.60;99.90;;;;;;5077608;28;20904;-71
2021/11/03 00:25:45;;;;;;;26.02;17.75;;;6.60;99.90;;;;;;5077232;28;20196;-72
2021/11/03 00:28:19;;;;;;;22.50;17.40;;;6.60;99.90;;;;;;5077840;28;20173;-72
2021/11/03 00:30:52;;;;;;;24.63;17.40;;;6.60;99.90;;;;;;5077162;28;20206;-73
2021/11/03 00:33:18;;;;;;;22.65;16.23;;;6.60;99.90;;;;;;5077341;28;20180;-70
2021/11/03 00:35:44;;;;;;;22.33;16.80;;;6.60;99.90;;;;;;5077072;28;20315;-70
2021/11/03 00:38:10;;;;;;;18.92;15.20;;;6.60;99.90;;;;;;5076553;28;20177;-70
2021/11/03 00:40:43;;;;;;;23.77;16.20;;;6.60;99.90;;;;;;5095112;28;20220;-72
2021/11/03 00:43:10;;;;;;;21.70;17.42;;;6.60;99.90;;;;;;5077204;28;20432;-70
2021/11/03 00:45:42;;;;;;;20.73;15.75;;;6.60;99.90;;;;;;5077015;28;20200;-72
2021/11/03 00:48:09;;;;;;;22.90;17.00;;;6.60;99.90;;;;;;5077001;28;20173;-70
2021/11/03 00:50:36;;;;;;;22.98;16.65;;;6.70;99.90;;;;;;5076876;28;20666;-72
2021/11/03 00:53:06;;;;;;;22.05;16.55;;;6.70;99.90;;;;;;5076812;28;20180;-70
2021/11/03 00:55:34;;;;;;;23.40;16.05;;;6.70;99.90;;;;;;5076759;28;20277;-69
2021/11/03 00:58:05;;;;;;;21.75;15.38;;;6.70;99.90;;;;;;5076694;28;20542;-72
2021/11/03 01:00:47;;;;;;;21.85;16.77;;;6.80;99.90;;;;;;5076702;28;20614;-71
2021/11/03 01:03:15;;;;;;;19.90;15.88;;;6.80;99.90;;;;;;5076715;28;20169;-73
2021/11/03 01:05:40;;;;;;;22.88;16.17;;;6.70;99.90;;;;;;5076637;28;20351;-72
2021/11/03 01:08:12;;;;;;;20.10;15.50;;;6.80;99.90;;;;;;5076146;28;20275;-72
2021/11/03 01:10:43;;;;;;;19.10;15.13;;;6.80;99.90;;;;;;5076564;28;20957;-73
2021/11/03 01:13:10;;;;;;;24.13;15.85;;;6.80;99.90;;;;;;5076510;28;20330;-72
2021/11/03 01:15:40;;;;;;;26.85;20.17;;;6.80;99.90;;;;;;5076385;28;20224;-73
2021/11/03 01:18:06;;;;;;;21.17;15.10;;;6.80;99.90;;;;;;5075945;28;20609;-72
2021/11/03 01:20:38;;;;;;;20.00;14.77;;;6.80;99.90;;;;;;5076291;28;20197;-71
2021/11/03 01:23:09;;;;;;;22.08;16.05;;;6.70;99.90;;;;;;5076137;28;20180;-69
2021/11/03 01:25:39;;;;;;;24.00;16.67;;;6.70;99.90;;;;;;5076064;28;20212;-73
2021/11/03 01:28:06;;;;;;;20.45;15.45;;;6.70;99.90;;;;;;5076198;28;20180;-69
2021/11/03 01:30:35;;;;;;;18.75;14.30;;;6.70;99.90;;;;;;5076295;28;20204;-72
2021/11/03 01:33:02;;;;;;;18.60;13.65;;;6.60;99.90;;;;;;5075680;28;20177;-71
2021/11/03 01:35:28;;;;;;;22.90;17.40;;;6.50;99.90;;;;;;5076113;28;20787;-70
2021/11/03 01:37:59;;;;;;;24.38;16.80;;;6.50;99.90;;;;;;5076126;28;20664;-71
2021/11/03 01:40:28;;;;;;;21.98;15.32;;;6.50;99.90;;;;;;5075979;28;20707;-71
2021/11/03 01:43:07;;;;;;;22.13;16.98;;;6.50;99.90;;;;;;5076070;28;20276;-73
2021/11/03 01:45:36;;;;;;;23.55;14.75;;;6.40;99.90;;;;;;5076059;28;20203;-71
2021/11/03 01:48:08;;;;;;;24.02;15.55;;;6.40;99.90;;;;;;5075802;28;20646;-73
2021/11/03 01:50:56;;;;;;;26.83;16.73;;;6.40;99.90;;;;;;5075898;28;20196;-73
2021/11/03 01:53:29;;;;;;;20.90;15.02;;;6.30;99.90;;;;;;5075859;28;20181;-69
2021/11/03 01:56:02;;;;;;;19.52;15.35;;;6.30;99.90;;;;;;5075879;28;20227;-73
2021/11/03 01:58:43;;;;;;;18.27;14.60;;;6.30;99.90;;;;;;5076075;28;20187;-73
2021/11/03 02:01:12;;;;;;;20.85;16.08;;;6.30;99.90;;;;;;5076044;28;20224;-73
2021/11/03 02:03:41;;;;;;;20.02;15.75;;;6.30;99.90;;;;;;5075865;28;20263;-71
2021/11/03 02:06:13;;;;;;;21.00;15.10;;;6.20;99.90;;;;;;5075884;28;20665;-70
2021/11/03 02:08:52;;;;;;;21.50;14.05;;;6.20;99.90;;;;;;5075873;28;20177;-73
2021/11/03 02:11:27;;;;;;;19.45;14.68;;;6.10;99.90;;;;;;5076045;28;20644;-73
2021/11/03 02:13:55;;;;;;;18.90;14.63;;;6.10;99.90;;;;;;5076076;28;20207;-71
2021/11/03 02:16:24;;;;;;;19.08;15.20;;;6.10;99.90;;;;;;5076047;28;20210;-73
2021/11/03 02:18:51;;;;;;;16.98;13.85;;;6.00;99.90;;;;;;5075576;28;20192;-73
2021/11/03 02:21:22;;;;;;;17.30;13.20;;;6.00;99.90;;;;;;5075679;28;20192;-73
2021/11/03 02:24:12;;;;;;;16.17;12.07;;;6.00;99.90;;;;;;5093952;28;20161;-70
2021/11/03 02:26:47;;;;;;;15.88;12.85;;;5.90;99.90;;;;;;5075605;28;20180;-73
2021/11/03 02:29:22;;;;;;;17.45;12.90;;;5.90;99.90;;;;;;5075331;28;20672;-73
2021/11/03 02:31:53;;;;;;;17.90;12.85;;;5.80;99.90;;;;;;5075568;28;20704;-68
2021/11/03 02:34:28;;;;;;;18.67;13.75;;;5.80;99.90;;;;;;5075478;28;20209;-70
2021/11/03 02:36:58;;;;;;;19.25;14.68;;;5.80;99.90;;;;;;5075537;28;20176;-71
2021/11/03 02:39:41;;;;;;;22.45;15.93;;;5.70;99.90;;;;;;5075375;28;20192;-71
2021/11/03 02:42:13;;;;;;;21.15;15.15;;;5.70;99.90;;;;;;5074947;28;20779;-73
2021/11/03 02:44:46;;;;;;;27.60;15.88;;;5.70;99.90;;;;;;5075400;28;20200;-72
2021/11/03 02:47:13;;;;;;;27.35;17.10;;;5.70;99.90;;;;;;5075965;28;20267;-70
2021/11/03 02:49:53;;;;;;;22.17;14.35;;;5.70;99.90;;;;;;5075508;28;20208;-73
2021/11/03 02:52:25;;;;;;;24.25;14.27;;;5.70;99.90;;;;;;5075313;28;20184;-73
2021/11/03 02:54:54;;;;;;;26.15;12.93;;;5.70;99.90;;;;;;5075147;28;20341;-69
2021/11/03 02:57:25;;;;;;;31.42;12.95;;;5.70;99.90;;;;;;5075226;28;20681;-70
2021/11/03 02:59:54;;;;;;;26.85;14.10;;;5.70;99.90;;;;;;5076262;28;20228;-73
2021/11/03 03:02:20;;;;;;;20.58;12.93;;;5.60;99.90;;;;;;5079249;28;20519;-70
2021/11/03 03:04:51;;;;;;;18.98;12.30;;;5.60;99.90;;;;;;5078908;28;20249;-69
2021/11/03 03:07:44;;;;;;;18.65;14.00;;;5.60;99.90;;;;;;5079031;28;20176;-72
2021/11/03 03:10:14;;;;;;;19.77;12.48;;;5.50;99.90;;;;;;5078749;28;20200;-70
2021/11/03 03:12:40;;;;;;;13.73;10.43;;;5.40;99.90;;;;;;5078754;28;20275;-69
2021/11/03 03:15:12;;;;;;;20.05;12.25;;;5.40;99.90;;;;;;5078517;28;20530;-73
2021/11/03 03:17:43;;;;;;;13.95;11.80;;;5.30;99.90;;;;;;5078684;28;20188;-73
2021/11/03 03:20:10;;;;;;;17.00;12.32;;;5.20;99.90;;;;;;5078102;28;20614;-70
2021/11/03 03:22:36;;;;;;;18.00;14.40;;;5.20;99.90;;;;;;5078804;28;20271;-68
2021/11/03 03:25:03;;;;;;;19.42;15.23;;;5.10;99.90;;;;;;5078398;28;20459;-71
2021/11/03 03:27:36;;;;;;;23.02;14.48;;;5.00;99.90;;;;;;5078644;28;20558;-73
2021/11/03 03:30:08;;;;;;;16.70;12.52;;;5.00;99.90;;;;;;5078328;28;20227;-75
2021/11/03 03:32:37;;;;;;;14.35;12.57;;;4.90;99.90;;;;;;5078718;28;20267;-73
2021/11/03 03:35:04;;;;;;;18.27;13.48;;;4.90;99.90;;;;;;5078216;28;20219;-70
2021/11/03 03:37:31;;;;;;;15.20;12.10;;;4.90;99.90;;;;;;5078474;28;20653;-69
2021/11/03 03:40:12;;;;;;;18.42;12.98;;;4.80;99.90;;;;;;5078307;28;20665;-73
2021/11/03 03:42:48;;;;;;;17.50;13.07;;;4.80;99.90;;;;;;5095693;28;20269;-70
2021/11/03 03:45:15;;;;;;;18.52;12.82;;;4.80;99.90;;;;;;5078697;28;20653;-73
2021/11/03 03:47:41;;;;;;;21.48;13.75;;;4.80;99.90;;;;;;5078251;28;20641;-70
2021/11/03 03:50:07;;;;;;;14.30;11.37;;;4.80;99.90;;;;;;5078156;28;20200;-70
2021/11/03 03:52:53;;;;;;;15.50;11.70;;;4.80;99.90;;;;;;5078624;28;20818;-73
2021/11/03 03:55:31;;;;;;;14.25;11.75;;;4.80;99.90;;;;;;5077988;28;20259;-70
2021/11/03 03:58:10;;;;;;;13.60;11.18;;;4.80;99.90;;;;;;5078164;28;20176;-73
2021/11/03 04:00:38;;;;;;;18.17;13.55;;;4.80;99.90;;;;;;5078025;28;20200;-72
2021/11/03 04:03:09;;;;;;;16.50;12.60;;;4.80;99.90;;;;;;5077847;28;20254;-73
2021/11/03 04:05:36;;;;;;;14.55;12.27;;;4.80;99.90;;;;;;5077921;28;20200;-70
2021/11/03 04:08:02;;;;;;;14.65;12.32;;;4.80;99.90;;;;;;5077725;28;20200;-73
2021/11/03 04:10:29;;;;;;;13.05;11.10;;;4.80;99.90;;;;;;5077793;28;20207;-72
2021/11/03 04:12:56;;;;;;;16.45;11.30;;;4.80;99.90;;;;;;5076707;28;20180;-70
2021/11/03 04:15:22;;;;;;;15.45;12.40;;;4.80;99.90;;;;;;5077727;28;20307;-70
2021/11/03 04:17:48;;;;;;;13.80;11.43;;;4.90;99.90;;;;;;5077874;28;20233;-70
2021/11/03 04:20:16;;;;;;;12.90;11.55;;;4.90;99.90;;;;;;5077446;28;20196;-71
2021/11/03 04:22:43;;;;;;;12.75;10.55;;;4.80;99.90;;;;;;5077550;28;20195;-69
2021/11/03 04:25:13;;;;;;;15.05;11.45;;;4.90;99.90;;;;;;5077387;28;20249;-70
2021/11/03 04:27:50;;;;;;;15.73;11.00;;;4.90;99.90;;;;;;5077496;28;20268;-72
2021/11/03 04:30:25;;;;;;;13.45;10.63;;;5.00;99.90;;;;;;5076988;28;20207;-73
2021/11/03 04:32:54;;;;;;;14.52;10.68;;;5.00;99.90;;;;;;5077264;28;20589;-70
2021/11/03 04:35:30;;;;;;;13.83;10.97;;;5.00;99.90;;;;;;5095529;28;20215;-72
2021/11/03 04:37:56;;;;;;;15.90;12.70;;;5.00;99.90;;;;;;5076841;28;20384;-69
2021/11/03 04:40:24;;;;;;;15.25;11.10;;;5.00;99.90;;;;;;5077154;28;20299;-70
2021/11/03 04:42:50;;;;;;;14.15;10.90;;;5.00;99.90;;;;;;5077004;28;20228;-70
2021/11/03 04:45:25;;;;;;;14.57;11.17;;;5.00;99.90;;;;;;5077073;28;20203;-73
2021/11/03 04:47:51;;;;;;;12.18;10.40;;;5.00;99.90;;;;;;5077137;28;20402;-70
2021/11/03 04:50:31;;;;;;;11.93;10.52;;;5.00;99.90;;;;;;5077199;28;20211;-73
2021/11/03 04:52:58;;;;;;;13.45;11.35;;;5.00;99.90;;;;;;5076964;28;20176;-72
2021/11/03 04:55:28;;;;;;;12.95;11.32;;;5.00;99.90;;;;;;5076600;28;20629;-69
2021/11/03 04:57:58;;;;;;;13.30;11.25;;;5.00;99.90;;;;;;5076861;28;20200;-72
2021/11/03 05:00:57;;;;;;;18.92;14.63;;;5.00;99.90;;;;;;5077052;28;20192;-73
2021/11/03 05:03:29;;;;;;;15.88;13.30;;;5.10;99.90;;;;;;5076590;28;20180;-70
2021/11/03 05:05:55;;;;;;;16.30;12.95;;;5.10;99.90;;;;;;5076701;28;20203;-71
2021/11/03 05:08:31;;;;;;;18.42;12.88;;;5.10;99.90;;;;;;5076662;28;20181;-73
2021/11/03 05:10:58;;;;;;;14.32;11.40;;;5.10;99.90;;;;;;5076638;28;20223;-70
2021/11/03 05:13:24;;;;;;;14.70;12.68;;;5.20;99.90;;;;;;5076435;28;20268;-70
2021/11/03 05:15:53;;;;;;;18.53;13.03;;;5.20;99.90;;;;;;5076416;28;20315;-73
2021/11/03 05:18:20;;;;;;;18.38;12.77;;;5.20;99.90;;;;;;5076410;28;20759;-73
2021/11/03 05:20:53;;;;;;;17.42;13.02;;;5.20;99.90;;;;;;5076854;28;20237;-71
2021/11/03 05:23:24;;;;;;;18.55;14.63;;;5.30;99.90;;;;;;5076249;28;20524;-68
2021/11/03 05:25:55;;;;;;;18.90;14.32;;;5.30;99.90;;;;;;5076319;28;20201;-73
2021/11/03 05:28:23;;;;;;;19.30;13.55;;;5.30;99.90;;;;;;5076306;28;20181;-68
2021/11/03 05:30:52;;;;;;;19.98;14.93;;;5.30;99.90;;;;;;5076123;28;20196;-70
2021/11/03 05:33:18;;;;;;;17.23;13.68;;;5.30;99.90;;;;;;5070964;28;20189;-70
2021/11/03 05:35:44;;;;;;;24.98;15.07;;;5.30;99.90;;;;;;5072460;28;20322;-72
2021/11/03 05:38:17;;;;;;;19.13;15.85;;;5.30;99.90;;;;;;5090546;28;20188;-73
2021/11/03 05:40:43;;;;;;;26.67;17.13;;;5.30;99.90;;;;;;5072776;28;20192;-70
2021/11/03 05:43:13;;;;;;;25.02;18.85;;;5.30;99.90;;;;;;5072731;28;20240;-73
2021/11/03 05:45:43;;;;;;;27.90;19.67;;;5.30;99.90;;;;;;5073080;28;20200;-73
2021/11/03 05:48:22;;;;;;;34.10;22.25;;;5.30;99.90;;;;;;5072957;28;20180;-73
2021/11/03 05:50:54;;;;;;;32.53;21.58;;;5.30;99.90;;;;;;5073084;28;20192;-73
2021/11/03 05:53:24;;;;;;;29.40;20.38;;;5.40;99.90;;;;;;5073091;28;20797;-73
2021/11/03 05:55:55;;;;;;;27.65;19.80;;;5.40;99.90;;;;;;5072294;28;20231;-71
2021/11/03 05:58:38;;;;;;;30.02;21.30;;;5.40;99.90;;;;;;5074010;28;20200;-72
2021/11/03 06:01:07;;;;;;;28.48;18.58;;;5.40;99.90;;;;;;5054240;28;20200;-70
2021/11/03 06:03:37;;;;;;;24.77;18.27;;;5.50;99.90;;;;;;5071653;28;20184;-73
2021/11/03 06:06:08;;;;;;;25.23;19.65;;;5.50;99.90;;;;;;5072100;28;20212;-73
2021/11/03 06:08:33;;;;;;;26.15;19.13;;;5.50;99.90;;;;;;5072047;28;20197;-70
2021/11/03 06:11:01;;;;;;;23.30;18.07;;;5.50;99.90;;;;;;5055687;28;20284;-70
2021/11/03 06:13:49;;;;;;;29.25;20.05;;;5.60;99.90;;;;;;5056161;28;20177;-72
2021/11/03 06:16:17;;;;;;;23.17;18.35;;;5.60;99.90;;;;;;5055471;28;20328;-70
2021/11/03 06:18:47;;;;;;;26.67;18.55;;;5.60;99.90;;;;;;5054893;28;20183;-70
2021/11/03 06:21:14;;;;;;;26.90;20.40;;;5.60;99.90;;;;;;5067373;28;20286;-70
2021/11/03 06:23:48;;;;;;;30.85;21.48;;;5.60;99.90;;;;;;5059329;28;20192;-73
2021/11/03 06:26:17;;;;;;;27.77;22.48;;;5.60;99.90;;;;;;5075129;28;20200;-70
2021/11/03 06:28:49;;;;;;;26.58;19.73;;;5.60;99.90;;;;;;5065125;28;20196;-73
2021/11/03 06:31:15;;;;;;;25.80;18.30;;;5.60;99.90;;;;;;5061898;28;20209;-70
2021/11/03 06:33:42;;;;;;;23.93;17.37;;;5.60;99.90;;;;;;5063437;28;20185;-71
2021/11/03 06:36:12;;;;;;;29.50;20.40;;;5.70;99.90;;;;;;5059776;28;20473;-74
2021/11/03 06:38:38;;;;;;;25.50;19.30;;;5.70;99.90;;;;;;5074672;28;20180;-71
2021/11/03 06:41:09;;;;;;;26.60;19.80;;;5.70;99.90;;;;;;5071301;28;20192;-73
2021/11/03 06:43:39;;;;;;;27.35;18.13;;;5.80;99.90;;;;;;5071517;28;20632;-74
2021/11/03 06:46:11;;;;;;;25.63;17.70;;;5.80;99.90;;;;;;5069986;28;20582;-74
2021/11/03 06:48:40;;;;;;;26.73;18.65;;;5.80;99.90;;;;;;5062241;28;20177;-75
2021/11/03 06:51:08;;;;;;;27.67;20.10;;;5.80;99.90;;;;;;5070840;28;20564;-71
2021/11/03 06:53:43;;;;;;;30.08;20.48;;;5.90;99.90;;;;;;5073207;28;20553;-74
2021/11/03 06:59:43;;;;;;;29.80;20.15;;;5.90;99.90;;;;;;5074671;28;20262;-74
2021/11/03 07:02:16;;;;;;;28.08;19.42;;;6.00;99.90;;;;;;5097764;28;20664;-75
2021/11/03 07:04:42;;;;;;;33.45;21.35;;;6.00;99.90;;;;;;5056734;28;20201;-72
2021/11/03 07:10:40;;;;;;;42.08;27.05;;;6.20;99.90;;;;;;5079895;28;20754;-74
2021/11/03 07:13:08;;;;;;;35.45;23.98;;;6.20;99.90;;;;;;5074072;28;20172;-71
2021/11/03 07:15:34;;;;;;;35.78;24.77;;;6.30;99.90;;;;;;5069692;28;20225;-74
2021/11/03 07:18:02;;;;;;;31.92;21.30;;;6.40;99.90;;;;;;5055616;28;20246;-70
2021/11/03 07:20:29;;;;;;;37.60;22.00;;;6.50;99.90;;;;;;5070648;28;20204;-71
2021/11/03 07:23:02;;;;;;;34.65;22.00;;;6.60;99.90;;;;;;5074392;28;20177;-74
2021/11/03 07:25:29;;;;;;;28.63;18.88;;;6.70;99.90;;;;;;5073299;28;20321;-74
2021/11/03 07:28:04;;;;;;;33.42;21.83;;;6.70;99.90;;;;;;5076986;28;20177;-73
2021/11/03 07:30:36;;;;;;;31.85;21.48;;;6.80;99.90;;;;;;5096360;28;20253;-70
2021/11/03 07:33:05;;;;;;;33.92;22.42;;;6.90;99.90;;;;;;5066353;28;20741;-75
2021/11/03 07:35:31;;;;;;;32.10;22.30;;;7.00;99.90;;;;;;5070382;28;20314;-71
2021/11/03 07:37:58;;;;;;;27.13;19.63;;;7.00;99.90;;;;;;5064884;28;20272;-72
2021/11/03 07:40:38;;;;;;;35.05;22.52;;;7.10;99.90;;;;;;5068931;28;20246;-74
2021/11/03 07:43:14;;;;;;;35.72;23.00;;;7.20;99.90;;;;;;5075366;28;20651;-74
2021/11/03 07:45:41;;;;;;;34.17;23.83;;;7.20;99.90;;;;;;5075967;28;20620;-72
2021/11/03 07:48:14;;;;;;;39.85;25.05;;;7.30;99.90;;;;;;5075954;28;20637;-74
2021/11/03 07:50:52;;;;;;;36.33;22.23;;;7.50;99.90;;;;;;5073381;28;20254;-74
2021/11/03 07:53:24;;;;;;;23.52;18.00;;;7.80;99.90;;;;;;5073818;28;20195;-74
2021/11/03 07:56:05;;;;;;;20.05;15.25;;;8.20;99.90;;;;;;5091251;28;20224;-74
2021/11/03 07:58:46;;;;;;;21.50;15.75;;;8.70;99.90;;;;;;5086658;28;20716;-74
2021/11/03 08:01:13;;;;;;;22.27;16.25;;;9.20;99.90;;;;;;5072181;28;20204;-71
2021/11/03 08:03:40;;;;;;;20.83;17.13;;;9.60;99.90;;;;;;5071767;28;20176;-72
2021/11/03 08:06:08;;;;;;;20.63;15.93;;;10.00;99.90;;;;;;5072872;28;20199;-71
2021/11/03 08:08:37;;;;;;;17.55;14.90;;;10.50;99.90;;;;;;5074104;28;20608;-72
2021/11/03 08:11:04;;;;;;;17.10;14.23;;;11.20;99.90;;;;;;5074336;28;20649;-71
2021/11/03 08:13:32;;;;;;;16.50;13.83;;;12.00;99.90;;;;;;5075308;28;20279;-72
2021/11/03 08:16:02;;;;;;;16.10;13.27;;;12.70;99.90;;;;;;5073737;28;21083;-72
2021/11/03 08:18:49;;;;;;;17.13;14.32;;;13.20;99.90;;;;;;5072207;28;20213;-75
2021/11/03 08:21:26;;;;;;;18.65;14.38;;;13.50;99.90;;;;;;5074074;28;20204;-75
2021/11/03 08:23:53;;;;;;;18.35;15.90;;;13.50;99.90;;;;;;5051391;28;20687;-75
2021/11/03 08:26:26;;;;;;;18.30;14.35;;;13.40;99.90;;;;;;5051436;28;20181;-75
2021/11/03 08:28:56;;;;;;;19.00;15.18;;;13.40;99.90;;;;;;5051796;28;20279;-75
2021/11/03 08:31:28;;;;;;;19.02;15.63;;;13.20;99.90;;;;;;5041444;28;20187;-75
2021/11/03 08:34:07;;;;;;;20.63;16.23;;;12.90;99.90;;;;;;5042732;28;21068;-75
2021/11/03 08:36:39;;;;;;;20.15;16.95;;;12.60;99.90;;;;;;5050166;28;20623;-71
2021/11/03 08:39:17;;;;;;;22.77;17.17;;;12.30;99.90;;;;;;5043736;28;20191;-75
2021/11/03 08:42:05;;;;;;;23.90;17.38;;;12.20;99.90;;;;;;5062024;28;20231;-74
2021/11/03 08:44:40;;;;;;;24.83;18.30;;;12.00;99.90;;;;;;5049161;28;20207;-75
2021/11/03 08:47:14;;;;;;;37.08;24.95;;;11.90;99.90;;;;;;5042425;28;20180;-75
2021/11/03 08:49:44;;;;;;;26.70;17.85;;;11.80;99.90;;;;;;5041931;28;20227;-72
2021/11/03 08:52:13;;;;;;;28.70;22.05;;;11.60;99.90;;;;;;5039159;28;20212;-75
2021/11/03 08:54:53;;;;;;;26.52;19.60;;;11.60;99.90;;;;;;5043467;28;20222;-73
2021/11/03 08:57:21;;;;;;;27.45;19.63;;;11.70;99.90;;;;;;5055406;28;20177;-70
2021/11/03 08:59:49;;;;;;;23.92;19.10;;;11.70;99.90;;;;;;5062415;28;20680;-74
2021/11/03 09:02:16;;;;;;;28.05;19.92;;;11.70;99.90;;;;;;5054453;28;20177;-70
2021/11/03 09:04:48;;;;;;;24.38;19.42;;;11.70;99.90;;;;;;5061591;28;20238;-74
2021/11/03 09:07:33;;;;;;;27.92;20.50;;;11.70;99.90;;;;;;5086213;28;20605;-71
2021/11/03 09:10:13;;;;;;;27.15;19.67;;;11.70;99.90;;;;;;5067519;28;20233;-75
2021/11/03 09:12:46;;;;;;;29.88;20.67;;;11.80;99.90;;;;;;5074737;28;20740;-74
2021/11/03 09:15:14;;;;;;;29.27;22.00;;;11.80;99.90;;;;;;5079605;28;20388;-70
2021/11/03 09:17:53;;;;;;;32.10;22.48;;;11.90;99.90;;;;;;5071064;28;20185;-74
2021/11/03 09:20:29;;;;;;;32.42;21.60;;;12.00;99.90;;;;;;5061337;28;20192;-74
2021/11/03 09:22:57;;;;;;;26.13;20.38;;;12.20;99.90;;;;;;5072507;28;20184;-74
2021/11/03 09:25:32;;;;;;;27.65;19.27;;;12.40;99.90;;;;;;5072763;28;20668;-74
2021/11/03 09:28:12;;;;;;;26.05;19.02;;;12.50;99.90;;;;;;5063997;28;20176;-74
2021/11/03 09:30:40;;;;;;;26.77;19.58;;;12.50;99.90;;;;;;5069321;28;20291;-71
2021/11/03 09:33:12;;;;;;;26.98;21.30;;;12.50;99.90;;;;;;5067713;28;20169;-71
2021/11/03 09:35:58;;;;;;;29.25;20.73;;;12.50;99.90;;;;;;5062912;28;20311;-75
2021/11/03 09:38:41;;;;;;;29.15;20.67;;;12.50;99.90;;;;;;5062170;28;20271;-74
2021/11/03 09:41:35;;;;;;;28.67;21.40;;;12.50;99.90;;;;;;5055771;28;21304;-70
2021/11/03 09:44:32;;;;;;;23.60;19.07;;;12.60;99.90;;;;;;5060031;28;20245;-74
2021/11/03 09:47:17;;;;;;;25.05;19.75;;;12.80;99.90;;;;;;5042130;28;20449;-75
2021/11/03 09:49:58;;;;;;;27.25;20.02;;;13.00;99.90;;;;;;5057924;28;20208;-74
2021/11/03 09:52:36;;;;;;;22.80;18.70;;;13.10;99.90;;;;;;5071869;28;20185;-70
2021/11/03 09:55:27;;;;;;;24.10;19.30;;;13.20;99.90;;;;;;5062982;28;20833;-75
2021/11/03 09:58:17;;;;;;;22.97;19.00;;;13.20;99.90;;;;;;5074597;28;20406;-75
2021/11/03 10:01:44;;;;;;;24.52;19.02;;;13.20;99.90;;;;;;5067500;28;21048;-71
2021/11/03 10:04:40;;;;;;;22.27;19.03;;;13.30;99.90;;;;;;5020015;28;20350;-72
2021/11/03 10:07:49;;;;;;;25.73;19.83;;;13.30;99.90;;;;;;5060624;28;20456;-70
2021/11/03 10:10:29;;;;;;;29.23;20.50;;;13.30;99.90;;;;;;5062191;28;21017;-71
2021/11/03 10:12:55;;;;;;;27.87;21.20;;;13.40;99.90;;;;;;5057655;28;20437;-71
2021/11/03 10:15:24;;;;;;;28.87;21.30;;;13.50;99.90;;;;;;5065789;28;20487;-71
2021/11/03 10:18:19;;;;;;;28.90;21.80;;;13.60;99.90;;;;;;5055691;28;20429;-71
2021/11/03 10:21:17;;;;;;;31.27;22.93;;;13.80;99.90;;;;;;5077183;28;20953;-71
2021/11/03 10:23:59;;;;;;;25.60;20.50;;;13.90;99.90;;;;;;5058380;28;20417;-70
2021/11/03 10:26:44;;;;;;;31.93;21.70;;;14.00;99.90;;;;;;5068323;28;20446;-75
2021/11/03 10:29:13;;;;;;;29.77;21.27;;;14.10;99.90;;;;;;5072256;28;20432;-74
2021/11/03 10:31:49;;;;;;;29.50;23.27;;;14.20;99.90;;;;;;5066265;28;20798;-72
2021/11/03 10:34:34;;;;;;;31.57;23.00;;;14.20;99.90;;;;;;5062223;28;20546;-75
2021/11/03 10:37:15;;;;;;;31.03;23.83;;;14.30;99.90;;;;;;5085482;28;20868;-69
2021/11/03 10:40:04;;;;;;;30.83;22.17;;;14.40;99.90;;;;;;5066220;28;20423;-71
2021/11/03 10:42:49;;;;;;;35.13;24.10;;;14.50;99.90;;;;;;5077497;28;20544;-70
2021/11/03 10:45:18;;;;;;;30.50;23.03;;;14.60;99.90;;;;;;5052361;28;20552;-75
2021/11/03 10:47:53;;;;;;;31.43;23.70;;;14.60;99.90;;;;;;5060086;28;20863;-74
2021/11/03 10:50:43;;;;;;;30.60;24.00;;;14.70;99.90;;;;;;5064001;28;20476;-74
2021/11/03 10:53:17;;;;;;;30.97;23.93;;;14.80;99.90;;;;;;5072227;28;20440;-75
2021/11/03 10:56:01;;;;;;;29.67;24.43;;;14.80;99.90;;;;;;5083830;28;20722;-74
2021/11/03 10:58:35;;;;;;;32.00;25.40;;;14.90;99.90;;;;;;5070276;28;20797;-70
2021/11/03 11:01:12;;;;;;;32.13;25.27;;;15.00;99.90;;;;;;5070998;28;20431;-74
2021/11/03 11:03:49;;;;;;;32.73;26.43;;;15.10;99.90;;;;;;5068357;28;20441;-74
2021/11/03 11:06:33;;;;;;;32.57;24.87;;;15.10;99.90;;;;;;5065048;28;20860;-71
2021/11/03 11:09:10;;;;;;;32.37;24.80;;;15.20;99.90;;;;;;5067387;28;20489;-71
2021/11/03 11:11:56;;;;;;;32.77;27.53;;;15.30;99.90;;;;;;5067441;28;20954;-75
2021/11/03 11:14:26;;;;;;;31.93;25.53;;;15.40;99.90;;;;;;5063829;28;20950;-71
2021/11/03 11:17:15;;;;;;;34.97;27.47;;;15.40;99.90;;;;;;5058442;28;20450;-71
2021/11/03 11:20:06;;;;;;;33.23;27.70;;;15.50;99.90;;;;;;5065486;28;20543;-71
2021/11/03 11:22:52;;;;;;;35.23;26.87;;;15.50;99.90;;;;;;5067019;28;20434;-75
2021/11/03 11:25:25;;;;;;;36.37;25.60;;;15.60;99.90;;;;;;5065189;28;20812;-75
2021/11/03 11:28:20;;;;;;;32.97;24.67;;;15.60;99.90;;;;;;5087662;28;20547;-71
2021/11/03 11:31:16;;;;;;;35.33;26.43;;;15.60;99.90;;;;;;5071882;28;20854;-74
2021/11/03 11:34:21;;;;;;;34.40;24.77;;;15.70;99.90;;;;;;5089622;28;20425;-71
2021/11/03 11:37:08;;;;;;;34.53;26.90;;;15.70;99.90;;;;;;5058100;28;20453;-71
2021/11/03 11:40:16;;;;;;;31.00;22.17;;;15.80;99.90;;;;;;5074166;28;20463;-75
2021/11/03 11:43:05;;;;;;;35.17;26.17;;;15.80;99.90;;;;;;5060260;28;21050;-71
2021/11/03 11:45:35;;;;;;;36.33;24.33;;;15.80;99.90;;;;;;5051117;28;20904;-75
2021/11/03 11:48:31;;;;;;;28.70;24.27;;;15.80;99.90;;;;;;5069995;28;20432;-75
2021/11/03 11:51:25;;;;;;;33.87;25.77;;;15.80;99.90;;;;;;5052210;28;20468;-75
2021/11/03 11:53:51;;;;;;;37.50;26.40;;;15.80;99.90;;;;;;5033100;28;20434;-70
2021/11/03 11:57:22;;;;;;;36.90;25.73;;;15.80;99.90;;;;;;5039815;28;20478;-71
2021/11/03 12:00:11;;;;;;;37.70;27.87;;;15.80;99.90;;;;;;5028630;28;20620;-70
2021/11/03 12:02:52;;;;;;;36.93;26.47;;;15.80;99.90;;;;;;5046190;28;20839;-74
2021/11/03 12:05:21;;;;;;;34.00;25.37;;;15.80;99.90;;;;;;5050807;28;21071;-71
2021/11/03 12:08:14;;;;;;;32.90;24.40;;;15.80;99.90;;;;;;5047630;28;20484;-71
2021/11/03 12:11:04;;;;;;;38.90;26.93;;;15.80;99.90;;;;;;5041091;28;20466;-75
2021/11/03 12:13:47;;;;;;;33.33;25.47;;;15.80;99.90;;;;;;5044346;28;20466;-71
2021/11/03 12:16:34;;;;;;;34.30;23.80;;;15.80;99.90;;;;;;5047199;28;20827;-71
2021/11/03 12:19:04;;;;;;;33.40;24.30;;;15.80;99.90;;;;;;5044808;28;20422;-75
2021/11/03 12:21:33;;;;;;;35.53;25.13;;;15.80;99.90;;;;;;5046967;28;20451;-74
2021/11/03 12:24:10;;;;;;;29.97;22.90;;;15.70;99.90;;;;;;5063412;28;20464;-75
2021/11/03 12:26:52;;;;;;;33.73;24.73;;;15.60;99.90;;;;;;5049475;28;20809;-71
2021/11/03 12:29:18;;;;;;;34.93;24.83;;;15.60;99.90;;;;;;5052515;28;20885;-71
2021/11/03 12:31:47;;;;;;;38.13;25.67;;;15.60;99.90;;;;;;5046480;28;20457;-73
2021/11/03 12:34:59;;;;;;;35.37;25.33;;;15.50;99.90;;;;;;5050756;28;20206;-75
2021/11/03 12:37:38;;;;;;;41.87;27.80;;;15.40;99.90;;;;;;4973943;28;20472;-74
2021/11/03 12:40:34;;;;;;;43.70;29.93;;;15.40;99.90;;;;;;5042215;28;21007;-71
2021/11/03 12:43:32;;;;;;;38.27;28.33;;;15.40;99.90;;;;;;5056216;28;20462;-75
2021/11/03 12:46:13;;;;;;;41.90;28.43;;;15.30;99.90;;;;;;5065815;28;20844;-71
2021/11/03 12:48:49;;;;;;;39.63;28.23;;;15.40;99.90;;;;;;5072351;28;20505;-71
2021/11/03 12:55:29;;;;;;;41.47;27.33;;;15.30;99.90;;;;;;5081775;28;20495;-75
2021/11/03 12:58:00;;;;;;;39.37;26.13;;;15.40;99.90;;;;;;5062053;28;20458;-71
2021/11/03 13:00:34;;;;;;;40.73;27.63;;;15.40;99.90;;;;;;5061790;28;20457;-71
2021/11/03 13:03:06;;;;;;;35.90;26.30;;;15.40;99.90;;;;;;5066044;28;20430;-71
2021/11/03 13:05:44;;;;;;;35.43;26.30;;;15.50;99.90;;;;;;5065745;28;20467;-71
2021/11/03 13:08:24;;;;;;;39.40;25.87;;;15.50;99.90;;;;;;5067133;28;20440;-75
2021/11/03 13:11:02;;;;;;;33.10;25.20;;;15.60;99.90;;;;;;5067955;28;20463;-71
2021/11/03 13:13:30;;;;;;;33.23;23.83;;;15.60;99.90;;;;;;5064809;28;20429;-71
2021/11/03 13:16:27;;;;;;;33.57;23.80;;;15.70;99.90;;;;;;5068530;28;20483;-75
2021/11/03 13:18:56;;;;;;;37.40;26.20;;;15.80;99.90;;;;;;5066458;28;20436;-71
2021/11/03 13:21:34;;;;;;;37.47;26.37;;;15.90;99.90;;;;;;5058763;28;20404;-71